Time;durP1;ratioP1;P1;durP2;ratioP2;P2;SDS_P1;SDS_P2;PMS_P1;PMS_P2;Temp;Humidity;BMP_temperature;BMP_pressure;BME280_temperature;BME280_humidity;BME280_pressure;Samples;Min_cycle;Max_cycle;Signal;HPM_P1;HPM_P2
2023/04/06 00:00:51;;;;;;;73.23;28.47;;;1.90;7.40;;;;;;5013460;28;20248;-69
2023/04/06 00:03:17;;;;;;;79.07;29.98;;;1.90;7.60;;;;;;5012583;28;20222;-69
2023/04/06 00:05:43;;;;;;;81.00;46.42;;;1.80;8.10;;;;;;5012976;28;20183;-69
2023/04/06 00:08:08;;;;;;;78.33;43.97;;;1.80;8.50;;;;;;5012349;28;20187;-68
2023/04/06 00:10:34;;;;;;;75.30;32.67;;;1.70;9.10;;;;;;5012087;28;20187;-69
2023/04/06 00:13:00;;;;;;;79.53;43.97;;;1.60;9.00;;;;;;5012732;28;20172;-69
2023/04/06 00:15:26;;;;;;;76.13;33.07;;;1.60;9.20;;;;;;5012792;28;20808;-68
2023/04/06 00:17:52;;;;;;;75.20;30.30;;;1.60;9.10;;;;;;5013118;28;20249;-68
2023/04/06 00:20:18;;;;;;;80.93;52.17;;;1.60;8.90;;;;;;5012278;28;20411;-68
2023/04/06 00:22:44;;;;;;;84.57;50.38;;;1.50;9.10;;;;;;5011928;28;20171;-68
2023/04/06 00:25:10;;;;;;;71.07;24.90;;;1.50;9.30;;;;;;5012767;28;20176;-68
2023/04/06 00:27:37;;;;;;;80.47;44.75;;;1.50;9.30;;;;;;5012194;28;20219;-68
2023/04/06 00:30:04;;;;;;;76.30;34.67;;;1.40;9.40;;;;;;5010742;28;20188;-68
2023/04/06 00:32:30;;;;;;;80.10;31.35;;;1.40;9.30;;;;;;5011850;28;20188;-68
2023/04/06 00:34:56;;;;;;;76.10;38.40;;;1.30;9.20;;;;;;5012590;28;20254;-68
2023/04/06 00:37:21;;;;;;;76.37;37.30;;;1.30;9.30;;;;;;5015972;28;20434;-68
2023/04/06 00:39:47;;;;;;;84.50;51.43;;;1.30;9.30;;;;;;5016383;28;20671;-68
2023/04/06 00:42:13;;;;;;;83.50;49.43;;;1.30;9.20;;;;;;5016086;28;20178;-68
2023/04/06 00:44:43;;;;;;;75.57;41.45;;;1.30;9.20;;;;;;5016035;28;20678;-68
2023/04/06 00:47:09;;;;;;;85.25;55.58;;;1.20;9.20;;;;;;5016175;28;20200;-68
2023/04/06 00:49:35;;;;;;;75.18;32.03;;;1.10;9.20;;;;;;5016158;28;20258;-68
2023/04/06 00:52:01;;;;;;;72.73;24.80;;;1.10;9.90;;;;;;5014532;28;20267;-68
2023/04/06 00:54:27;;;;;;;72.67;27.30;;;1.10;10.10;;;;;;5015707;28;20207;-68
2023/04/06 00:56:53;;;;;;;83.22;44.20;;;1.00;10.30;;;;;;5014626;28;20438;-68
2023/04/06 00:59:18;;;;;;;70.83;26.80;;;1.00;10.70;;;;;;5015908;28;20183;-68
2023/04/06 01:01:44;;;;;;;77.50;31.03;;;0.90;11.10;;;;;;5015411;28;20168;-68
2023/04/06 01:04:11;;;;;;;85.23;52.73;;;0.90;11.10;;;;;;5014553;28;20198;-68
2023/04/06 01:06:36;;;;;;;74.55;34.53;;;0.80;11.10;;;;;;5015546;28;20222;-68
2023/04/06 01:09:02;;;;;;;72.97;26.63;;;0.80;11.50;;;;;;5015522;28;20645;-68
2023/04/06 01:11:27;;;;;;;75.93;37.70;;;0.70;11.60;;;;;;5014208;28;20779;-68
2023/04/06 01:13:53;;;;;;;74.00;26.10;;;0.70;11.60;;;;;;5015342;28;20203;-68
2023/04/06 01:16:19;;;;;;;77.17;30.53;;;0.60;11.80;;;;;;5015430;28;20210;-68
2023/04/06 01:18:44;;;;;;;73.57;23.67;;;0.60;12.10;;;;;;5015703;28;20523;-68
2023/04/06 01:21:15;;;;;;;75.27;30.70;;;0.60;12.30;;;;;;5015807;28;20168;-68
2023/04/06 01:23:43;;;;;;;75.00;24.23;;;0.60;12.40;;;;;;5015377;28;20171;-68
2023/04/06 01:26:08;;;;;;;75.75;23.75;;;0.60;12.70;;;;;;5015339;28;20661;-68
2023/04/06 01:28:34;;;;;;;76.87;31.83;;;0.60;13.10;;;;;;5015116;28;20259;-68
2023/04/06 01:30:59;;;;;;;74.80;28.87;;;0.50;13.00;;;;;;5015349;28;20175;-68
2023/04/06 01:33:25;;;;;;;76.17;30.13;;;0.50;13.00;;;;;;5015020;28;20172;-68
2023/04/06 01:35:51;;;;;;;77.93;36.37;;;0.40;13.00;;;;;;5014948;28;20520;-68
2023/04/06 01:38:16;;;;;;;76.90;31.23;;;0.40;13.20;;;;;;5014909;28;20180;-68
2023/04/06 01:40:42;;;;;;;73.27;29.53;;;0.40;13.40;;;;;;5014820;28;20195;-68
2023/04/06 01:43:07;;;;;;;79.40;36.00;;;0.30;13.80;;;;;;5014806;28;20171;-68
2023/04/06 01:45:33;;;;;;;83.20;45.43;;;0.30;14.00;;;;;;5014954;28;20180;-68
2023/04/06 01:47:58;;;;;;;76.43;37.47;;;0.20;14.00;;;;;;5013955;28;20207;-68
2023/04/06 01:50:24;;;;;;;73.70;31.63;;;0.20;14.40;;;;;;5014961;28;20198;-68
2023/04/06 01:52:49;;;;;;;77.87;30.80;;;0.10;14.50;;;;;;5014827;28;20186;-67
2023/04/06 01:55:15;;;;;;;80.07;32.70;;;0.20;14.20;;;;;;5015093;28;20209;-68
2023/04/06 01:57:40;;;;;;;82.53;39.53;;;0.20;14.20;;;;;;5015066;28;20272;-68
2023/04/06 02:00:07;;;;;;;78.57;33.60;;;0.20;14.30;;;;;;5015515;28;20176;-68
2023/04/06 02:02:32;;;;;;;83.03;41.95;;;0.20;13.80;;;;;;5016160;28;20187;-68
2023/04/06 02:04:58;;;;;;;76.43;36.37;;;0.20;13.80;;;;;;5016825;28;20188;-67
2023/04/06 02:07:23;;;;;;;74.27;29.20;;;0.10;14.10;;;;;;5016942;28;20636;-68
2023/04/06 02:09:49;;;;;;;75.90;33.87;;;0.00;14.20;;;;;;5017357;28;20715;-67
2023/04/06 02:12:15;;;;;;;79.50;33.50;;;0.00;15.00;;;;;;5017358;28;20670;-67
2023/04/06 02:14:40;;;;;;;75.87;33.63;;;0.00;16.20;;;;;;5017751;28;20213;-67
2023/04/06 02:17:06;;;;;;;74.33;29.13;;;-0.10;16.20;;;;;;5019849;28;20686;-67
2023/04/06 02:19:32;;;;;;;80.17;41.80;;;-0.20;16.80;;;;;;5018085;28;20213;-67
2023/04/06 02:21:57;;;;;;;71.67;26.67;;;-0.20;16.80;;;;;;5022515;28;20253;-67
2023/04/06 02:24:23;;;;;;;76.47;28.03;;;-0.10;16.40;;;;;;5019468;28;20217;-67
2023/04/06 02:26:48;;;;;;;73.17;26.37;;;-0.20;16.80;;;;;;5014284;28;20219;-67
2023/04/06 02:29:14;;;;;;;73.23;27.90;;;-0.20;16.90;;;;;;5014482;28;20182;-69
2023/04/06 02:31:39;;;;;;;84.33;44.43;;;-0.30;16.80;;;;;;5013430;28;20277;-67
2023/04/06 02:34:05;;;;;;;74.73;25.03;;;-0.20;17.00;;;;;;5013992;28;20207;-68
2023/04/06 02:36:31;;;;;;;76.70;33.70;;;-0.30;16.80;;;;;;5013841;28;20214;-68
2023/04/06 02:38:56;;;;;;;73.30;26.40;;;-0.40;17.60;;;;;;5013883;28;20182;-68
2023/04/06 02:41:22;;;;;;;88.77;40.07;;;-0.30;17.60;;;;;;5014030;28;20182;-68
2023/04/06 02:43:47;;;;;;;80.63;36.40;;;-0.30;17.70;;;;;;5013793;28;20178;-68
2023/04/06 02:46:13;;;;;;;73.87;27.90;;;-0.30;17.60;;;;;;5013595;28;20693;-68
2023/04/06 02:48:38;;;;;;;73.37;26.23;;;-0.40;17.70;;;;;;5013904;28;20543;-68
2023/04/06 02:51:04;;;;;;;73.97;28.27;;;-0.40;17.80;;;;;;5012636;28;20189;-67
2023/04/06 02:53:29;;;;;;;74.27;30.20;;;-0.50;18.40;;;;;;5012158;28;20183;-67
2023/04/06 02:55:55;;;;;;;78.60;32.67;;;-0.50;18.80;;;;;;5013109;28;20209;-68
2023/04/06 02:58:21;;;;;;;71.50;28.55;;;-0.60;19.10;;;;;;5012841;28;20231;-67
2023/04/06 03:00:46;;;;;;;80.83;33.43;;;-0.60;19.00;;;;;;5013391;28;20185;-67
2023/04/06 03:03:12;;;;;;;73.33;24.50;;;-0.60;19.30;;;;;;5013296;28;20186;-67
2023/04/06 03:05:37;;;;;;;80.50;33.37;;;-0.60;19.50;;;;;;5012233;28;20184;-67
2023/04/06 03:08:03;;;;;;;75.03;31.60;;;-0.60;19.50;;;;;;5011439;28;20233;-67
2023/04/06 03:10:28;;;;;;;74.30;24.10;;;-0.60;19.40;;;;;;5013819;28;20464;-67
2023/04/06 03:12:54;;;;;;;76.27;25.97;;;-0.60;19.30;;;;;;5013416;28;20181;-67
2023/04/06 03:15:19;;;;;;;76.07;30.73;;;-0.60;19.20;;;;;;5013416;28;20215;-67
2023/04/06 03:17:45;;;;;;;78.90;35.03;;;-0.60;18.80;;;;;;5013173;28;20242;-67
2023/04/06 03:20:11;;;;;;;71.57;24.47;;;-0.60;19.00;;;;;;5013161;28;20195;-67
2023/04/06 03:22:36;;;;;;;82.70;38.67;;;-0.60;18.70;;;;;;5013143;28;20172;-67
2023/04/06 03:25:02;;;;;;;79.97;36.20;;;-0.70;19.00;;;;;;5011728;28;20340;-67
2023/04/06 03:27:27;;;;;;;75.83;21.80;;;-0.60;18.60;;;;;;5012776;28;20231;-67
2023/04/06 03:29:53;;;;;;;79.53;31.63;;;-0.60;18.60;;;;;;5012615;28;20460;-67
2023/04/06 03:32:18;;;;;;;72.90;22.00;;;-0.70;18.90;;;;;;5011128;28;20184;-67
2023/04/06 03:34:44;;;;;;;75.27;25.60;;;-0.70;18.70;;;;;;5011653;28;20555;-67
2023/04/06 03:37:09;;;;;;;73.67;21.90;;;-0.80;18.80;;;;;;5012200;28;20201;-67
2023/04/06 03:39:35;;;;;;;74.17;23.43;;;-0.80;18.70;;;;;;5012824;28;20669;-67
2023/04/06 03:42:00;;;;;;;74.00;24.87;;;-0.90;18.60;;;;;;5012860;28;20694;-67
2023/04/06 03:44:26;;;;;;;73.30;25.27;;;-0.90;18.70;;;;;;5013275;28;20186;-68
2023/04/06 03:46:51;;;;;;;78.07;20.10;;;-0.90;19.00;;;;;;5013019;28;20202;-68
2023/04/06 03:49:17;;;;;;;75.07;28.80;;;-0.90;18.80;;;;;;5012642;28;20173;-67
2023/04/06 03:51:42;;;;;;;73.60;24.37;;;-0.90;19.00;;;;;;5011248;28;20185;-68
2023/04/06 03:54:08;;;;;;;73.57;22.47;;;-0.90;19.30;;;;;;5012685;28;20205;-68
2023/04/06 03:56:33;;;;;;;76.47;24.87;;;-0.90;19.60;;;;;;5011644;28;20208;-68
2023/04/06 03:58:59;;;;;;;75.77;25.23;;;-1.00;19.10;;;;;;5012678;28;20180;-68
2023/04/06 04:01:25;;;;;;;73.50;25.87;;;-1.00;19.50;;;;;;5011121;28;20176;-68
2023/04/06 04:03:52;;;;;;;77.85;25.65;;;-1.00;19.70;;;;;;5012301;28;20552;-67
2023/04/06 04:06:17;;;;;;;77.68;26.17;;;-1.00;20.40;;;;;;5012119;28;20193;-68
2023/04/06 04:08:42;;;;;;;77.80;26.07;;;-0.90;20.50;;;;;;5012253;28;20196;-67
2023/04/06 04:11:08;;;;;;;76.50;25.67;;;-1.00;20.50;;;;;;5012308;28;20669;-68
2023/04/06 04:13:34;;;;;;;77.70;24.43;;;-1.10;20.40;;;;;;5010846;28;20174;-68
2023/04/06 04:15:59;;;;;;;75.40;23.97;;;-1.10;21.00;;;;;;5011988;28;20267;-67
2023/04/06 04:18:25;;;;;;;76.37;27.13;;;-1.10;20.90;;;;;;5012284;28;20178;-67
2023/04/06 04:20:50;;;;;;;76.40;26.37;;;-1.10;21.50;;;;;;5012390;28;20208;-67
2023/04/06 04:23:16;;;;;;;75.57;29.67;;;-1.10;19.90;;;;;;5012489;28;20230;-67
2023/04/06 04:25:43;;;;;;;80.33;30.13;;;-1.00;20.00;;;;;;5012198;28;20251;-67
2023/04/06 04:28:08;;;;;;;77.28;27.30;;;-1.00;19.50;;;;;;5012744;28;20184;-68
2023/04/06 04:30:34;;;;;;;76.40;31.03;;;-1.00;19.30;;;;;;5012096;28;20177;-68
2023/04/06 04:33:00;;;;;;;75.13;24.83;;;-1.00;19.70;;;;;;5011735;28;20184;-68
2023/04/06 04:35:26;;;;;;;72.40;23.83;;;-1.10;19.00;;;;;;5011638;28;20211;-68
2023/04/06 04:37:52;;;;;;;78.50;28.77;;;-1.10;19.20;;;;;;5011882;28;20621;-68
2023/04/06 04:40:17;;;;;;;81.50;29.30;;;-1.20;19.70;;;;;;5011919;28;20177;-68
2023/04/06 04:42:43;;;;;;;77.80;27.27;;;-1.10;20.00;;;;;;5011912;28;20226;-68
2023/04/06 04:45:09;;;;;;;76.60;27.80;;;-1.20;19.50;;;;;;5011667;28;20183;-68
2023/04/06 04:47:35;;;;;;;83.80;26.90;;;;;;;;;;5011994;28;20197;-68
2023/04/06 04:50:00;;;;;;;78.17;26.07;;;-1.10;20.00;;;;;;5011332;28;20514;-68
2023/04/06 04:52:26;;;;;;;75.40;24.87;;;-1.20;20.40;;;;;;5010401;28;20474;-68
2023/04/06 04:54:51;;;;;;;75.97;28.33;;;-1.20;21.60;;;;;;5009861;28;20296;-68
2023/04/06 04:57:17;;;;;;;80.30;31.10;;;-1.20;21.20;;;;;;5010338;28;20294;-67
2023/04/06 04:59:43;;;;;;;77.60;27.90;;;-1.20;20.30;;;;;;5011570;28;20177;-68
2023/04/06 05:02:08;;;;;;;78.10;25.87;;;-1.20;19.80;;;;;;5011093;28;20187;-68
2023/04/06 05:04:35;;;;;;;79.20;23.77;;;-1.20;19.70;;;;;;5011703;28;20794;-68
2023/04/06 05:07:08;;;;;;;82.65;32.45;;;-1.20;19.20;;;;;;5011248;28;20193;-67
2023/04/06 05:09:34;;;;;;;84.13;22.60;;;-1.10;19.20;;;;;;5011810;28;20184;-67
2023/04/06 05:12:00;;;;;;;78.90;27.47;;;-1.20;20.70;;;;;;5011202;28;20177;-67
2023/04/06 05:14:26;;;;;;;77.03;23.08;;;-1.20;21.20;;;;;;5010192;28;20834;-67
2023/04/06 05:16:53;;;;;;;78.28;22.08;;;-1.10;22.30;;;;;;5011310;28;20202;-67
2023/04/06 05:19:18;;;;;;;76.93;27.20;;;-1.00;19.10;;;;;;5011564;28;20529;-68
2023/04/06 05:21:44;;;;;;;83.33;28.90;;;-1.00;18.70;;;;;;5012146;28;20247;-68
2023/04/06 05:24:10;;;;;;;87.30;26.77;;;;;;;;;;5013755;28;20189;-68
2023/04/06 05:26:36;;;;;;;80.85;29.25;;;;;;;;;;5014991;28;20225;-68
2023/04/06 05:29:02;;;;;;;86.07;27.63;;;;;;;;;;5015021;28;20174;-67
2023/04/06 05:31:28;;;;;;;79.38;28.23;;;;;;;;;;5014707;28;20423;-68
2023/04/06 05:33:54;;;;;;;82.30;29.10;;;;;;;;;;5014584;28;20188;-68
2023/04/06 05:36:20;;;;;;;84.70;28.42;;;;;;;;;;5014814;28;20444;-69
2023/04/06 05:38:46;;;;;;;78.30;29.90;;;;;;;;;;5014535;28;20655;-69
2023/04/06 05:41:12;;;;;;;78.47;30.58;;;;;;;;;;5014324;28;20410;-69
2023/04/06 05:43:38;;;;;;;78.43;32.50;;;;;;;;;;5013025;28;20188;-68
2023/04/06 05:46:04;;;;;;;85.10;48.78;;;;;;;;;;5014435;28;20488;-68
2023/04/06 05:48:30;;;;;;;81.53;30.75;;;;;;;;;;5013337;28;20180;-68
2023/04/06 05:50:56;;;;;;;88.67;47.17;;;;;;;;;;5014799;28;20186;-69
2023/04/06 05:53:22;;;;;;;86.27;47.23;;;;;;;;;;5014268;28;20506;-68
2023/04/06 05:55:48;;;;;;;89.97;56.10;;;;;;;;;;5014365;28;20886;-69
2023/04/06 05:58:14;;;;;;;84.63;41.77;;;;;;;;;;5014635;28;20474;-68
2023/04/06 06:00:42;;;;;;;76.47;41.58;;;;;;;;;;5010151;28;20445;-68
2023/04/06 06:03:08;;;;;;;83.72;51.72;;;;;;;;;;4996465;28;20260;-68
2023/04/06 06:05:34;;;;;;;89.97;59.03;;;;;;;;;;5012499;28;20178;-68
2023/04/06 06:08:01;;;;;;;90.97;55.45;;;;;;;;;;5013642;28;20204;-68
2023/04/06 06:10:28;;;;;;;88.93;63.00;;;;;;;;;;5013374;28;20177;-68
2023/04/06 06:12:54;;;;;;;96.70;80.05;;;;;;;;;;5012204;28;20197;-68
2023/04/06 06:15:20;;;;;;;106.18;91.40;;;;;;;;;;5013115;28;20272;-69
2023/04/06 06:17:46;;;;;;;97.10;76.30;;;;;;;;;;5013777;28;20657;-68
2023/04/06 06:20:12;;;;;;;84.03;59.37;;;;;;;;;;5009126;28;20555;-68
2023/04/06 06:22:39;;;;;;;123.43;111.43;;;;;;;;;;5006323;28;20421;-68
2023/04/06 06:25:05;;;;;;;256.37;238.50;;;;;;;;;;5013651;28;20493;-68
2023/04/06 06:27:31;;;;;;;166.33;151.60;;;;;;;;;;5013742;28;20563;-69
2023/04/06 06:29:57;;;;;;;405.00;378.80;;;;;;;;;;5013939;28;20453;-69
2023/04/06 06:32:23;;;;;;;208.33;192.40;;;-1.00;18.30;;;;;;5013657;28;20418;-70
2023/04/06 06:34:49;;;;;;;131.30;119.27;;;15.80;1.00;;;;;;5013487;28;20461;-69
2023/04/06 06:37:15;;;;;;;198.63;183.03;;;;;;;;;;5013178;28;20200;-67
2023/04/06 06:39:40;;;;;;;179.80;165.77;;;17.50;1.00;;;;;;5013296;28;20650;-67
2023/04/06 06:42:06;;;;;;;331.47;309.87;;;17.90;1.00;;;;;;5013389;28;20417;-68
2023/04/06 06:44:32;;;;;;;206.63;190.87;;;;;;;;;;5012903;28;20250;-70
2023/04/06 06:46:58;;;;;;;305.67;285.83;;;;;;;;;;5013700;28;20295;-68
2023/04/06 06:49:24;;;;;;;301.37;280.77;;;;;;;;;;5013292;28;20512;-69
2023/04/06 06:51:50;;;;;;;155.57;142.00;;;;;;;;;;5012755;28;20435;-69
2023/04/06 06:54:16;;;;;;;319.37;298.53;;;;;;;;;;5012815;28;20957;-70
2023/04/06 06:56:41;;;;;;;285.57;266.80;;;;;;;;;;5015479;28;20943;-69
2023/04/06 06:59:07;;;;;;;246.73;229.57;;;;;;;;;;5013072;28;20504;-70
2023/04/06 07:01:34;;;;;;;281.20;262.13;;;;;;;;;;5012828;28;20864;-69
2023/04/06 07:04:00;;;;;;;459.20;431.93;;;;;;;;;;5013390;28;20455;-70
2023/04/06 07:06:26;;;;;;;252.63;234.97;;;;;;;;;;5012413;28;20453;-70
2023/04/06 07:08:52;;;;;;;269.90;251.27;;;;;;;;;;5015365;28;20426;-70
2023/04/06 07:11:17;;;;;;;277.53;258.77;;;22.10;1.00;;;;;;5012954;28;20497;-69
2023/04/06 07:13:43;;;;;;;368.90;345.33;;;21.80;1.00;;;;;;5014173;28;20430;-69
2023/04/06 07:16:09;;;;;;;210.13;194.63;;;22.10;1.00;;;;;;5011462;28;20207;-69
2023/04/06 07:18:35;;;;;;;427.33;401.27;;;;;;;;;;5012564;28;20179;-68
2023/04/06 07:21:00;;;;;;;286.13;266.60;;;;;;;;;;5014016;28;20352;-71
2023/04/06 07:23:26;;;;;;;333.00;310.83;;;;;;;;;;5011943;28;20426;-69
2023/04/06 07:25:53;;;;;;;277.90;258.30;;;22.90;1.00;;;;;;5012563;28;20425;-69
2023/04/06 07:28:19;;;;;;;358.13;334.83;;;;;;;;;;5012289;28;20584;-69
2023/04/06 07:30:45;;;;;;;318.77;298.13;;;;;;;;;;5012398;28;20414;-69
2023/04/06 07:33:11;;;;;;;351.23;329.80;;;;;;;;;;5014104;28;20499;-70
2023/04/06 07:35:38;;;;;;;287.80;270.43;;;;;;;;;;5013711;28;20935;-69
2023/04/06 07:38:03;;;;;;;158.93;146.00;;;22.30;1.00;;;;;;5012417;28;20450;-69
2023/04/06 07:40:31;;;;;;;242.77;226.40;;;12.80;1.00;;;;;;5013643;28;20849;-68
2023/04/06 07:42:57;;;;;;;274.47;255.77;;;11.50;4.30;;;;;;5011901;28;20176;-70
2023/04/06 07:45:22;;;;;;;170.80;157.17;;;10.70;5.40;;;;;;5013538;28;20446;-68
2023/04/06 07:47:48;;;;;;;121.87;110.00;;;10.20;13.10;;;;;;5012954;28;20203;-68
2023/04/06 07:50:13;;;;;;;302.30;281.43;;;9.60;12.50;;;;;;5011214;28;20195;-68
2023/04/06 07:52:39;;;;;;;156.13;142.17;;;9.80;1.30;;;;;;5011840;28;20191;-68
2023/04/06 07:55:05;;;;;;;108.07;97.10;;;10.00;1.90;;;;;;5012191;28;20206;-69
2023/04/06 07:57:30;;;;;;;158.30;144.97;;;11.20;1.00;;;;;;5004621;28;20456;-69
2023/04/06 07:59:56;;;;;;;157.07;143.90;;;12.60;8.80;;;;;;5013662;28;20230;-69
2023/04/06 08:02:21;;;;;;;211.27;195.63;;;13.20;7.40;;;;;;5012495;28;20177;-68
2023/04/06 08:04:47;;;;;;;217.57;201.77;;;13.10;1.00;;;;;;5013961;28;20180;-68
2023/04/06 08:07:13;;;;;;;172.30;158.47;;;13.50;1.00;;;;;;5011540;28;20199;-68
2023/04/06 08:09:38;;;;;;;228.50;212.47;;;14.90;1.00;;;;;;5012397;28;20213;-69
2023/04/06 08:12:06;;;;;;;89.37;66.33;;;17.00;1.00;;;;;;5007167;28;20180;-69
2023/04/06 08:14:31;;;;;;;296.17;276.27;;;19.40;1.00;;;;;;5007501;28;20211;-68
2023/04/06 08:16:57;;;;;;;278.67;260.20;;;20.30;1.00;;;;;;5007874;28;20450;-69
2023/04/06 08:19:22;;;;;;;248.13;230.77;;;19.70;1.00;;;;;;5007611;28;20390;-69
2023/04/06 08:21:48;;;;;;;298.07;278.70;;;20.30;1.00;;;;;;5008947;28;20187;-68
2023/04/06 08:24:14;;;;;;;136.30;123.87;;;22.00;1.00;;;;;;5008868;28;20217;-69
2023/04/06 08:26:41;;;;;;;506.10;477.23;;;;;;;;;;5008441;28;20575;-68
2023/04/06 08:29:09;;;;;;;421.67;394.80;;;22.50;1.00;;;;;;5007707;28;20449;-69
2023/04/06 08:31:35;;;;;;;433.70;406.37;;;24.00;1.00;;;;;;5007766;28;20435;-69
2023/04/06 08:34:03;;;;;;;336.53;314.40;;;24.10;1.00;;;;;;5028447;28;20434;-68
2023/04/06 08:36:28;;;;;;;234.13;215.93;;;24.50;1.00;;;;;;5030206;28;20460;-68
2023/04/06 08:38:54;;;;;;;418.73;393.23;;;24.60;1.00;;;;;;5011723;28;20502;-68
2023/04/06 08:41:20;;;;;;;484.03;455.07;;;24.70;1.00;;;;;;5013390;28;20176;-67
2023/04/06 08:43:54;;;;;;;453.07;426.03;;;25.30;1.00;;;;;;5010309;28;20423;-68
2023/04/06 08:46:21;;;;;;;368.07;343.20;;;25.90;1.00;;;;;;5012739;28;20469;-68
2023/04/06 08:48:49;;;;;;;483.47;453.77;;;23.80;1.00;;;;;;5011638;28;20435;-68
2023/04/06 08:51:15;;;;;;;389.07;363.93;;;20.70;1.00;;;;;;5010051;28;20474;-68
2023/04/06 08:53:41;;;;;;;432.50;407.20;;;17.80;1.00;;;;;;5004167;28;20474;-68
2023/04/06 08:56:07;;;;;;;307.03;287.53;;;;;;;;;;5007039;28;21029;-68
2023/04/06 08:58:36;;;;;;;322.10;300.87;;;15.70;2.80;;;;;;5008767;28;20260;-68
2023/04/06 09:01:08;;;;;;;304.87;285.40;;;13.20;6.30;;;;;;5009476;28;20435;-68
2023/04/06 09:03:38;;;;;;;301.83;283.43;;;12.10;1.00;;;;;;5009160;28;20449;-68
2023/04/06 09:06:05;;;;;;;241.83;225.13;;;11.50;1.00;;;;;;5009455;28;20477;-69
2023/04/06 09:08:30;;;;;;;286.83;267.57;;;11.30;1.00;;;;;;5011032;28;20423;-68
2023/04/06 09:10:56;;;;;;;218.80;203.07;;;11.00;1.00;;;;;;5011149;28;20428;-68
2023/04/06 09:13:21;;;;;;;195.70;180.87;;;10.60;1.00;;;;;;5011344;28;20661;-68
2023/04/06 09:15:57;;;;;;;226.10;210.00;;;10.40;1.00;;;;;;5012008;28;20207;-68
2023/04/06 09:18:33;;;;;;;157.40;144.43;;;10.40;1.00;;;;;;5010603;28;20564;-68
2023/04/06 09:21:05;;;;;;;116.43;104.97;;;10.00;1.00;;;;;;5011405;28;20422;-70
2023/04/06 09:23:31;;;;;;;256.47;238.70;;;10.00;1.00;;;;;;5010812;28;20519;-69
2023/04/06 09:26:15;;;;;;;290.50;269.57;;;10.00;1.00;;;;;;5011170;28;20461;-69
2023/04/06 09:28:47;;;;;;;114.47;102.83;;;10.10;1.00;;;;;;5011188;28;20187;-68
2023/04/06 09:31:15;;;;;;;207.20;191.37;;;10.00;1.00;;;;;;5010561;28;20426;-68
2023/04/06 09:33:42;;;;;;;139.47;126.57;;;10.10;1.00;;;;;;5011129;28;20430;-68
2023/04/06 09:36:10;;;;;;;239.20;222.27;;;10.10;1.00;;;;;;5011920;28;20519;-69
2023/04/06 09:38:50;;;;;;;326.33;305.97;;;10.30;1.00;;;;;;5012349;28;20426;-67
2023/04/06 09:41:28;;;;;;;327.60;306.77;;;10.40;1.00;;;;;;5012669;28;20418;-68
2023/04/06 09:44:11;;;;;;;179.33;164.67;;;10.40;1.00;;;;;;5010785;28;20450;-68
2023/04/06 09:46:41;;;;;;;118.13;107.13;;;10.60;1.00;;;;;;5012223;28;20447;-68
2023/04/06 09:49:09;;;;;;;167.93;154.17;;;10.60;1.00;;;;;;5010577;28;20790;-68
2023/04/06 09:51:40;;;;;;;206.67;191.37;;;10.70;1.00;;;;;;5009945;28;20450;-68
2023/04/06 09:54:06;;;;;;;167.30;154.40;;;10.80;1.00;;;;;;5010528;28;20423;-68
2023/04/06 09:56:39;;;;;;;198.00;183.63;;;10.90;1.00;;;;;;5010808;28;20451;-68
2023/04/06 09:59:12;;;;;;;193.93;179.07;;;10.90;1.00;;;;;;5010337;28;20521;-68
2023/04/06 10:01:39;;;;;;;255.03;237.47;;;11.00;1.00;;;;;;5009687;28;20720;-68
2023/04/06 10:04:21;;;;;;;129.37;117.93;;;11.10;1.00;;;;;;5010467;28;20508;-68
2023/04/06 10:06:52;;;;;;;134.07;122.80;;;11.00;1.00;;;;;;5011263;28;20442;-69
2023/04/06 10:09:21;;;;;;;257.03;240.67;;;11.10;1.00;;;;;;5010649;28;20422;-69
2023/04/06 10:11:48;;;;;;;247.53;230.43;;;11.10;1.00;;;;;;5010382;28;20447;-68
2023/04/06 10:14:15;;;;;;;152.97;140.10;;;11.20;1.00;;;;;;5012563;28;20500;-68
2023/04/06 10:16:41;;;;;;;235.73;219.33;;;11.30;1.00;;;;;;5010661;28;20467;-69
2023/04/06 10:19:15;;;;;;;302.10;282.03;;;11.50;1.00;;;;;;5013960;28;20411;-67
2023/04/06 10:21:45;;;;;;;324.37;302.47;;;11.50;1.00;;;;;;5013826;28;20423;-69
2023/04/06 10:24:11;;;;;;;204.43;189.53;;;11.50;1.00;;;;;;5015371;28;20481;-67
2023/04/06 10:26:37;;;;;;;202.57;187.70;;;11.60;1.00;;;;;;5029354;22;20552;-69
2023/04/06 10:29:04;;;;;;;195.13;180.20;;;11.60;1.00;;;;;;5013997;28;20407;-69
2023/04/06 10:31:29;;;;;;;293.47;273.93;;;11.70;1.00;;;;;;5013915;28;20183;-69
2023/04/06 10:34:02;;;;;;;212.27;196.63;;;11.70;1.00;;;;;;5012840;28;20423;-69
2023/04/06 10:36:33;;;;;;;87.73;77.30;;;11.80;1.00;;;;;;5014019;28;20187;-69
2023/04/06 10:39:04;;;;;;;125.00;113.97;;;12.00;1.00;;;;;;5013934;28;20947;-69
2023/04/06 10:41:41;;;;;;;279.23;261.23;;;12.20;1.00;;;;;;5014034;28;20497;-69
2023/04/06 10:44:07;;;;;;;176.23;162.07;;;12.20;1.00;;;;;;5012500;28;20796;-69
2023/04/06 10:46:34;;;;;;;307.37;287.87;;;12.10;1.00;;;;;;5013755;28;20440;-69
2023/04/06 10:49:12;;;;;;;237.13;220.37;;;12.10;1.00;;;;;;5013794;28;20235;-69
2023/04/06 10:51:38;;;;;;;280.37;261.77;;;12.10;1.00;;;;;;5012943;28;20438;-69
2023/04/06 10:54:06;;;;;;;335.40;314.40;;;12.20;1.00;;;;;;5011847;28;20441;-69
2023/04/06 10:56:36;;;;;;;133.57;121.53;;;12.20;1.00;;;;;;5013242;28;20795;-69
2023/04/06 10:59:02;;;;;;;203.07;187.80;;;12.20;1.00;;;;;;5013330;28;20422;-69
2023/04/06 11:01:27;;;;;;;258.83;241.33;;;12.30;1.00;;;;;;5012943;28;20415;-69
2023/04/06 11:03:55;;;;;;;261.23;243.37;;;12.40;1.00;;;;;;5013825;28;20460;-69
2023/04/06 11:06:29;;;;;;;354.80;331.70;;;12.50;1.00;;;;;;5012983;28;20183;-68
2023/04/06 11:08:55;;;;;;;276.53;258.90;;;12.50;1.00;;;;;;5011613;28;20425;-69
2023/04/06 11:11:23;;;;;;;288.83;269.63;;;12.50;1.00;;;;;;5013336;28;20506;-69
2023/04/06 11:13:56;;;;;;;225.07;209.67;;;12.50;1.00;;;;;;5011395;28;20458;-70
2023/04/06 11:16:24;;;;;;;138.57;126.80;;;12.60;1.00;;;;;;5012781;28;20435;-69
2023/04/06 11:18:55;;;;;;;299.00;279.07;;;12.80;1.80;;;;;;5011962;28;20415;-69
2023/04/06 11:21:39;;;;;;;247.73;231.17;;;12.80;1.00;;;;;;5012234;28;20434;-69
2023/04/06 11:24:12;;;;;;;201.33;186.57;;;12.80;4.80;;;;;;5012291;28;20422;-69
2023/04/06 11:26:38;;;;;;;184.83;171.03;;;12.70;5.00;;;;;;5010689;28;20524;-69
2023/04/06 11:29:05;;;;;;;330.67;306.73;;;13.00;1.00;;;;;;5012219;28;20408;-70
2023/04/06 11:31:31;;;;;;;267.00;249.43;;;13.00;1.00;;;;;;5012015;28;20426;-70
2023/04/06 11:33:57;;;;;;;305.10;286.17;;;13.00;1.00;;;;;;5012504;28;20415;-70
2023/04/06 11:36:23;;;;;;;192.10;177.57;;;13.10;1.00;;;;;;5012477;28;20285;-69
2023/04/06 11:38:49;;;;;;;214.80;199.53;;;13.30;1.00;;;;;;5012367;28;20507;-70
2023/04/06 11:41:15;;;;;;;260.43;242.63;;;13.40;1.00;;;;;;5012770;28;20182;-70
2023/04/06 11:43:47;;;;;;;187.63;173.90;;;13.50;1.00;;;;;;5001030;28;20442;-69
2023/04/06 11:46:19;;;;;;;266.57;247.40;;;13.60;1.00;;;;;;4991887;28;20277;-70
2023/04/06 11:48:45;;;;;;;317.00;297.37;;;13.50;1.00;;;;;;5001120;28;20430;-70
2023/04/06 11:51:11;;;;;;;175.63;161.80;;;13.60;1.00;;;;;;5011941;28;20441;-70
2023/04/06 11:53:45;;;;;;;266.50;249.00;;;13.80;1.00;;;;;;5013955;28;20423;-70
2023/04/06 11:56:11;;;;;;;274.70;256.77;;;14.00;1.00;;;;;;5002809;28;20378;-70
2023/04/06 11:58:37;;;;;;;300.83;282.67;;;13.80;1.00;;;;;;4998873;28;20868;-70
2023/04/06 12:01:05;;;;;;;348.80;326.23;;;13.80;1.00;;;;;;5012598;28;20478;-71
2023/04/06 12:03:34;;;;;;;376.67;353.23;;;13.70;1.00;;;;;;5012413;28;20178;-70
2023/04/06 12:05:59;;;;;;;301.00;281.67;;;13.80;1.00;;;;;;5001400;28;20431;-70
2023/04/06 12:08:25;;;;;;;320.23;299.87;;;14.00;1.00;;;;;;4992093;28;20536;-70
2023/04/06 12:10:51;;;;;;;438.50;406.77;;;14.00;1.00;;;;;;4994731;28;20204;-70
2023/04/06 12:13:16;;;;;;;283.33;264.97;;;14.20;1.00;;;;;;5010862;28;20908;-70
2023/04/06 12:15:42;;;;;;;352.30;331.03;;;14.40;1.00;;;;;;5012378;28;20215;-69
2023/04/06 12:18:07;;;;;;;363.57;339.50;;;14.50;4.90;;;;;;5011375;28;20656;-71
2023/04/06 12:20:33;;;;;;;401.13;373.30;;;14.40;1.00;;;;;;5011515;28;20175;-70
2023/04/06 12:23:02;;;;;;;267.50;249.47;;;14.40;1.00;;;;;;5012934;28;20660;-70
2023/04/06 12:25:27;;;;;;;265.67;248.07;;;14.20;1.00;;;;;;5010999;28;20222;-70
2023/04/06 12:27:53;;;;;;;233.80;217.33;;;14.30;1.00;;;;;;5011132;28;20890;-70
2023/04/06 12:30:19;;;;;;;379.53;355.60;;;14.40;1.00;;;;;;5011669;28;20215;-70
2023/04/06 12:32:44;;;;;;;310.77;291.43;;;14.60;1.00;;;;;;5007742;28;20207;-69
2023/04/06 12:35:11;;;;;;;408.70;382.33;;;14.50;1.00;;;;;;5001476;28;20454;-69
2023/04/06 12:37:37;;;;;;;321.43;301.13;;;14.60;1.00;;;;;;5014348;28;20204;-69